sensor_id;sensor_type;location;lat;lon;timestamp;P1;durP1;ratioP1;P2;durP2;ratioP2
8964;SDS011;4517;49.020;12.066;2023-08-17T00:01:41;32.77;;;29.17;;
8964;SDS011;4517;49.020;12.066;2023-08-17T00:04:07;31.17;;;28.10;;
8964;SDS011;4517;49.020;12.066;2023-08-17T00:06:33;31.77;;;28.67;;
8964;SDS011;4517;49.020;12.066;2023-08-17T00:08:59;30.20;;;27.30;;
8964;SDS011;4517;49.020;12.066;2023-08-17T00:11:26;29.80;;;27.07;;
8964;SDS011;4517;49.020;12.066;2023-08-17T00:13:52;43.17;;;29.77;;
8964;SDS011;4517;49.020;12.066;2023-08-17T00:16:18;30.33;;;27.50;;
8964;SDS011;4517;49.020;12.066;2023-08-17T00:18:44;30.27;;;27.30;;
8964;SDS011;4517;49.020;12.066;2023-08-17T00:21:10;30.10;;;27.20;;
8964;SDS011;4517;49.020;12.066;2023-08-17T00:23:36;31.00;;;27.77;;
8964;SDS011;4517;49.020;12.066;2023-08-17T00:26:02;30.70;;;27.83;;
8964;SDS011;4517;49.020;12.066;2023-08-17T00:28:28;32.93;;;29.70;;
8964;SDS011;4517;49.020;12.066;2023-08-17T00:30:54;31.43;;;28.57;;
8964;SDS011;4517;49.020;12.066;2023-08-17T00:33:20;31.73;;;28.50;;
8964;SDS011;4517;49.020;12.066;2023-08-17T00:35:46;32.47;;;29.37;;
8964;SDS011;4517;49.020;12.066;2023-08-17T00:38:12;32.47;;;28.60;;
8964;SDS011;4517;49.020;12.066;2023-08-17T00:40:38;30.60;;;27.50;;
8964;SDS011;4517;49.020;12.066;2023-08-17T00:43:04;31.73;;;28.53;;
8964;SDS011;4517;49.020;12.066;2023-08-17T00:45:31;29.40;;;26.77;;
8964;SDS011;4517;49.020;12.066;2023-08-17T00:47:57;28.70;;;26.10;;
8964;SDS011;4517;49.020;12.066;2023-08-17T00:50:24;31.67;;;28.50;;
8964;SDS011;4517;49.020;12.066;2023-08-17T00:52:53;38.70;;;30.57;;
8964;SDS011;4517;49.020;12.066;2023-08-17T00:55:20;32.00;;;28.93;;
8964;SDS011;4517;49.020;12.066;2023-08-17T00:57:46;31.93;;;28.47;;
8964;SDS011;4517;49.020;12.066;2023-08-17T01:00:12;32.03;;;28.70;;
8964;SDS011;4517;49.020;12.066;2023-08-17T01:02:41;35.83;;;32.23;;
8964;SDS011;4517;49.020;12.066;2023-08-17T01:05:08;35.50;;;31.93;;
8964;SDS011;4517;49.020;12.066;2023-08-17T01:07:34;37.83;;;34.07;;
8964;SDS011;4517;49.020;12.066;2023-08-17T01:10:00;36.83;;;33.33;;
8964;SDS011;4517;49.020;12.066;2023-08-17T01:12:31;35.70;;;32.10;;
8964;SDS011;4517;49.020;12.066;2023-08-17T01:15:04;34.63;;;30.70;;
8964;SDS011;4517;49.020;12.066;2023-08-17T01:17:33;33.47;;;29.73;;
8964;SDS011;4517;49.020;12.066;2023-08-17T01:19:59;29.20;;;26.50;;
8964;SDS011;4517;49.020;12.066;2023-08-17T01:22:27;29.50;;;26.77;;
8964;SDS011;4517;49.020;12.066;2023-08-17T01:24:55;32.20;;;29.10;;
8964;SDS011;4517;49.020;12.066;2023-08-17T01:27:26;36.83;;;32.90;;
8964;SDS011;4517;49.020;12.066;2023-08-17T01:29:52;36.77;;;32.77;;
8964;SDS011;4517;49.020;12.066;2023-08-17T01:32:29;38.30;;;32.30;;
8964;SDS011;4517;49.020;12.066;2023-08-17T01:35:01;35.43;;;32.03;;
8964;SDS011;4517;49.020;12.066;2023-08-17T01:37:29;31.70;;;28.80;;
8964;SDS011;4517;49.020;12.066;2023-08-17T01:39:57;32.83;;;29.90;;
8964;SDS011;4517;49.020;12.066;2023-08-17T01:42:24;35.20;;;31.90;;
8964;SDS011;4517;49.020;12.066;2023-08-17T01:44:51;36.07;;;32.23;;
8964;SDS011;4517;49.020;12.066;2023-08-17T01:47:20;35.80;;;32.10;;
8964;SDS011;4517;49.020;12.066;2023-08-17T01:49:47;36.10;;;32.40;;
8964;SDS011;4517;49.020;12.066;2023-08-17T01:52:13;37.23;;;33.03;;
8964;SDS011;4517;49.020;12.066;2023-08-17T01:54:39;35.07;;;31.30;;
8964;SDS011;4517;49.020;12.066;2023-08-17T01:57:04;35.73;;;31.93;;
8964;SDS011;4517;49.020;12.066;2023-08-17T01:59:30;37.33;;;33.53;;
8964;SDS011;4517;49.020;12.066;2023-08-17T02:01:56;40.87;;;32.70;;
8964;SDS011;4517;49.020;12.066;2023-08-17T02:04:22;36.50;;;31.60;;
8964;SDS011;4517;49.020;12.066;2023-08-17T02:06:48;34.10;;;30.73;;
8964;SDS011;4517;49.020;12.066;2023-08-17T02:09:14;34.17;;;30.97;;
8964;SDS011;4517;49.020;12.066;2023-08-17T02:11:40;33.13;;;29.70;;
8964;SDS011;4517;49.020;12.066;2023-08-17T02:14:06;32.70;;;29.47;;
8964;SDS011;4517;49.020;12.066;2023-08-17T02:16:32;33.20;;;30.00;;
8964;SDS011;4517;49.020;12.066;2023-08-17T02:18:58;31.90;;;28.90;;
8964;SDS011;4517;49.020;12.066;2023-08-17T02:21:24;32.13;;;28.73;;
8964;SDS011;4517;49.020;12.066;2023-08-17T02:23:50;31.07;;;28.23;;
8964;SDS011;4517;49.020;12.066;2023-08-17T02:26:16;29.90;;;27.10;;
8964;SDS011;4517;49.020;12.066;2023-08-17T02:28:42;35.53;;;28.93;;
8964;SDS011;4517;49.020;12.066;2023-08-17T02:31:08;34.93;;;29.20;;
8964;SDS011;4517;49.020;12.066;2023-08-17T02:33:34;33.73;;;30.63;;
8964;SDS011;4517;49.020;12.066;2023-08-17T02:36:02;38.17;;;34.13;;
8964;SDS011;4517;49.020;12.066;2023-08-17T02:38:28;39.37;;;34.67;;
8964;SDS011;4517;49.020;12.066;2023-08-17T02:40:54;38.87;;;34.97;;
8964;SDS011;4517;49.020;12.066;2023-08-17T02:43:20;37.27;;;33.53;;
8964;SDS011;4517;49.020;12.066;2023-08-17T02:45:46;35.63;;;32.07;;
8964;SDS011;4517;49.020;12.066;2023-08-17T02:48:12;36.27;;;32.40;;
8964;SDS011;4517;49.020;12.066;2023-08-17T02:50:38;36.60;;;33.00;;
8964;SDS011;4517;49.020;12.066;2023-08-17T02:53:04;37.10;;;33.43;;
8964;SDS011;4517;49.020;12.066;2023-08-17T02:55:30;37.50;;;33.83;;
8964;SDS011;4517;49.020;12.066;2023-08-17T02:57:56;42.93;;;37.63;;
8964;SDS011;4517;49.020;12.066;2023-08-17T03:00:22;41.27;;;37.10;;
8964;SDS011;4517;49.020;12.066;2023-08-17T03:02:48;42.53;;;38.00;;
8964;SDS011;4517;49.020;12.066;2023-08-17T03:05:14;43.00;;;38.10;;
8964;SDS011;4517;49.020;12.066;2023-08-17T03:07:40;40.10;;;36.00;;
8964;SDS011;4517;49.020;12.066;2023-08-17T03:10:06;41.43;;;37.03;;
8964;SDS011;4517;49.020;12.066;2023-08-17T03:12:32;43.20;;;38.57;;
8964;SDS011;4517;49.020;12.066;2023-08-17T03:14:58;41.97;;;37.17;;
8964;SDS011;4517;49.020;12.066;2023-08-17T03:17:24;40.67;;;36.33;;
8964;SDS011;4517;49.020;12.066;2023-08-17T03:19:50;50.43;;;37.60;;
8964;SDS011;4517;49.020;12.066;2023-08-17T03:22:16;37.97;;;34.10;;
8964;SDS011;4517;49.020;12.066;2023-08-17T03:24:42;36.20;;;32.30;;
8964;SDS011;4517;49.020;12.066;2023-08-17T03:27:08;34.40;;;31.00;;
8964;SDS011;4517;49.020;12.066;2023-08-17T03:29:34;35.43;;;31.83;;
8964;SDS011;4517;49.020;12.066;2023-08-17T03:31:59;36.00;;;32.50;;
8964;SDS011;4517;49.020;12.066;2023-08-17T03:34:25;35.17;;;31.43;;
8964;SDS011;4517;49.020;12.066;2023-08-17T03:36:51;32.30;;;29.30;;
8964;SDS011;4517;49.020;12.066;2023-08-17T03:39:17;33.67;;;30.40;;
8964;SDS011;4517;49.020;12.066;2023-08-17T03:41:43;31.73;;;28.60;;
8964;SDS011;4517;49.020;12.066;2023-08-17T03:44:09;30.90;;;28.10;;
8964;SDS011;4517;49.020;12.066;2023-08-17T03:46:35;31.30;;;28.30;;
8964;SDS011;4517;49.020;12.066;2023-08-17T03:49:01;36.97;;;33.17;;
8964;SDS011;4517;49.020;12.066;2023-08-17T03:51:27;35.23;;;31.50;;
8964;SDS011;4517;49.020;12.066;2023-08-17T03:53:53;33.50;;;30.20;;
8964;SDS011;4517;49.020;12.066;2023-08-17T03:56:19;32.10;;;29.17;;
8964;SDS011;4517;49.020;12.066;2023-08-17T03:58:45;34.87;;;31.50;;
8964;SDS011;4517;49.020;12.066;2023-08-17T04:01:11;34.13;;;30.70;;
8964;SDS011;4517;49.020;12.066;2023-08-17T04:03:38;35.63;;;32.23;;
8964;SDS011;4517;49.020;12.066;2023-08-17T04:06:04;34.00;;;30.93;;
8964;SDS011;4517;49.020;12.066;2023-08-17T04:08:31;36.33;;;32.50;;
8964;SDS011;4517;49.020;12.066;2023-08-17T04:10:57;36.07;;;32.10;;
8964;SDS011;4517;49.020;12.066;2023-08-17T04:13:23;35.77;;;32.17;;
8964;SDS011;4517;49.020;12.066;2023-08-17T04:15:49;38.57;;;34.87;;
8964;SDS011;4517;49.020;12.066;2023-08-17T04:18:15;38.83;;;35.10;;
8964;SDS011;4517;49.020;12.066;2023-08-17T04:20:41;36.97;;;33.33;;
8964;SDS011;4517;49.020;12.066;2023-08-17T04:23:07;36.43;;;32.90;;
8964;SDS011;4517;49.020;12.066;2023-08-17T04:25:33;33.63;;;30.50;;
8964;SDS011;4517;49.020;12.066;2023-08-17T04:27:58;32.53;;;28.97;;
8964;SDS011;4517;49.020;12.066;2023-08-17T04:30:24;32.83;;;29.63;;
8964;SDS011;4517;49.020;12.066;2023-08-17T04:32:50;32.20;;;28.73;;
8964;SDS011;4517;49.020;12.066;2023-08-17T04:35:17;32.80;;;29.50;;
8964;SDS011;4517;49.020;12.066;2023-08-17T04:37:43;30.20;;;27.50;;
8964;SDS011;4517;49.020;12.066;2023-08-17T04:40:09;28.80;;;26.10;;
8964;SDS011;4517;49.020;12.066;2023-08-17T04:42:36;29.17;;;26.00;;
8964;SDS011;4517;49.020;12.066;2023-08-17T04:45:02;27.77;;;25.10;;
8964;SDS011;4517;49.020;12.066;2023-08-17T04:47:28;27.57;;;24.87;;
8964;SDS011;4517;49.020;12.066;2023-08-17T04:49:54;26.47;;;24.00;;
8964;SDS011;4517;49.020;12.066;2023-08-17T04:52:20;27.03;;;24.37;;
8964;SDS011;4517;49.020;12.066;2023-08-17T04:54:45;26.57;;;24.07;;
8964;SDS011;4517;49.020;12.066;2023-08-17T04:57:11;27.20;;;24.53;;
8964;SDS011;4517;49.020;12.066;2023-08-17T04:59:37;25.77;;;23.43;;
8964;SDS011;4517;49.020;12.066;2023-08-17T05:02:03;26.53;;;24.10;;
8964;SDS011;4517;49.020;12.066;2023-08-17T05:04:30;27.40;;;25.00;;
8964;SDS011;4517;49.020;12.066;2023-08-17T05:06:56;26.70;;;24.20;;
8964;SDS011;4517;49.020;12.066;2023-08-17T05:09:22;25.80;;;23.80;;
8964;SDS011;4517;49.020;12.066;2023-08-17T05:11:48;26.27;;;24.07;;
8964;SDS011;4517;49.020;12.066;2023-08-17T05:14:14;27.00;;;24.53;;
8964;SDS011;4517;49.020;12.066;2023-08-17T05:16:40;26.07;;;23.70;;
8964;SDS011;4517;49.020;12.066;2023-08-17T05:19:06;27.93;;;25.00;;
8964;SDS011;4517;49.020;12.066;2023-08-17T05:21:32;29.23;;;26.23;;
8964;SDS011;4517;49.020;12.066;2023-08-17T05:23:58;26.50;;;23.70;;
8964;SDS011;4517;49.020;12.066;2023-08-17T05:26:24;27.17;;;24.33;;
8964;SDS011;4517;49.020;12.066;2023-08-17T05:28:50;24.20;;;22.10;;
8964;SDS011;4517;49.020;12.066;2023-08-17T05:31:16;25.17;;;22.57;;
8964;SDS011;4517;49.020;12.066;2023-08-17T05:33:42;24.67;;;22.60;;
8964;SDS011;4517;49.020;12.066;2023-08-17T05:36:07;25.60;;;23.50;;
8964;SDS011;4517;49.020;12.066;2023-08-17T05:38:34;25.37;;;23.13;;
8964;SDS011;4517;49.020;12.066;2023-08-17T05:41:00;26.37;;;24.37;;
8964;SDS011;4517;49.020;12.066;2023-08-17T05:43:27;25.93;;;23.63;;
8964;SDS011;4517;49.020;12.066;2023-08-17T05:45:52;25.53;;;23.13;;
8964;SDS011;4517;49.020;12.066;2023-08-17T05:48:19;25.47;;;23.17;;
8964;SDS011;4517;49.020;12.066;2023-08-17T05:50:48;24.50;;;22.30;;
8964;SDS011;4517;49.020;12.066;2023-08-17T05:53:14;27.57;;;23.63;;
8964;SDS011;4517;49.020;12.066;2023-08-17T05:55:40;24.67;;;22.50;;
8964;SDS011;4517;49.020;12.066;2023-08-17T05:58:06;25.93;;;23.37;;
8964;SDS011;4517;49.020;12.066;2023-08-17T06:00:32;24.80;;;22.70;;
8964;SDS011;4517;49.020;12.066;2023-08-17T06:02:58;24.03;;;22.03;;
8964;SDS011;4517;49.020;12.066;2023-08-17T06:05:27;25.53;;;23.53;;
8964;SDS011;4517;49.020;12.066;2023-08-17T06:07:56;25.10;;;22.90;;
8964;SDS011;4517;49.020;12.066;2023-08-17T06:10:25;25.20;;;22.50;;
8964;SDS011;4517;49.020;12.066;2023-08-17T06:12:54;24.93;;;22.60;;
8964;SDS011;4517;49.020;12.066;2023-08-17T06:15:21;24.97;;;22.80;;
8964;SDS011;4517;49.020;12.066;2023-08-17T06:17:47;23.60;;;21.60;;
8964;SDS011;4517;49.020;12.066;2023-08-17T06:20:15;24.20;;;22.20;;
8964;SDS011;4517;49.020;12.066;2023-08-17T06:22:41;26.00;;;23.70;;
8964;SDS011;4517;49.020;12.066;2023-08-17T06:25:07;25.73;;;23.03;;
8964;SDS011;4517;49.020;12.066;2023-08-17T06:27:34;26.17;;;23.67;;
8964;SDS011;4517;49.020;12.066;2023-08-17T06:30:00;25.60;;;23.30;;
8964;SDS011;4517;49.020;12.066;2023-08-17T06:32:27;25.97;;;23.77;;
8964;SDS011;4517;49.020;12.066;2023-08-17T06:34:53;26.80;;;24.20;;
8964;SDS011;4517;49.020;12.066;2023-08-17T06:37:19;26.73;;;24.23;;
8964;SDS011;4517;49.020;12.066;2023-08-17T06:39:45;25.17;;;22.90;;
8964;SDS011;4517;49.020;12.066;2023-08-17T06:42:11;25.63;;;23.50;;
8964;SDS011;4517;49.020;12.066;2023-08-17T06:44:37;26.10;;;23.50;;
8964;SDS011;4517;49.020;12.066;2023-08-17T06:47:03;25.90;;;22.90;;
8964;SDS011;4517;49.020;12.066;2023-08-17T06:49:30;25.47;;;23.17;;
8964;SDS011;4517;49.020;12.066;2023-08-17T06:51:56;28.63;;;24.17;;
8964;SDS011;4517;49.020;12.066;2023-08-17T06:54:22;28.13;;;25.53;;
8964;SDS011;4517;49.020;12.066;2023-08-17T06:56:48;27.03;;;24.80;;
8964;SDS011;4517;49.020;12.066;2023-08-17T06:59:14;25.50;;;23.57;;
8964;SDS011;4517;49.020;12.066;2023-08-17T07:01:40;27.43;;;24.67;;
8964;SDS011;4517;49.020;12.066;2023-08-17T07:04:05;26.73;;;24.20;;
8964;SDS011;4517;49.020;12.066;2023-08-17T07:06:32;25.80;;;23.43;;
8964;SDS011;4517;49.020;12.066;2023-08-17T07:08:58;26.10;;;23.80;;
8964;SDS011;4517;49.020;12.066;2023-08-17T07:11:24;25.90;;;23.40;;
8964;SDS011;4517;49.020;12.066;2023-08-17T07:13:50;25.80;;;23.50;;
8964;SDS011;4517;49.020;12.066;2023-08-17T07:16:16;26.37;;;24.00;;
8964;SDS011;4517;49.020;12.066;2023-08-17T07:18:42;25.17;;;22.77;;
8964;SDS011;4517;49.020;12.066;2023-08-17T07:21:08;25.07;;;22.97;;
8964;SDS011;4517;49.020;12.066;2023-08-17T07:23:34;26.07;;;23.57;;
8964;SDS011;4517;49.020;12.066;2023-08-17T07:26:00;25.30;;;23.10;;
8964;SDS011;4517;49.020;12.066;2023-08-17T07:28:26;25.47;;;23.10;;
8964;SDS011;4517;49.020;12.066;2023-08-17T07:30:52;30.37;;;27.50;;
8964;SDS011;4517;49.020;12.066;2023-08-17T07:33:18;28.50;;;25.80;;
8964;SDS011;4517;49.020;12.066;2023-08-17T07:35:44;26.77;;;24.33;;
8964;SDS011;4517;49.020;12.066;2023-08-17T07:38:10;27.43;;;24.27;;
8964;SDS011;4517;49.020;12.066;2023-08-17T07:40:36;28.00;;;25.63;;
8964;SDS011;4517;49.020;12.066;2023-08-17T07:43:02;28.67;;;26.00;;
8964;SDS011;4517;49.020;12.066;2023-08-17T07:45:28;27.20;;;24.77;;
8964;SDS011;4517;49.020;12.066;2023-08-17T07:47:54;25.90;;;23.60;;
8964;SDS011;4517;49.020;12.066;2023-08-17T07:50:20;28.03;;;25.43;;
8964;SDS011;4517;49.020;12.066;2023-08-17T07:52:46;27.23;;;25.00;;
8964;SDS011;4517;49.020;12.066;2023-08-17T07:55:12;27.47;;;25.13;;
8964;SDS011;4517;49.020;12.066;2023-08-17T07:57:38;27.00;;;24.57;;
8964;SDS011;4517;49.020;12.066;2023-08-17T08:00:04;28.83;;;26.47;;
8964;SDS011;4517;49.020;12.066;2023-08-17T08:02:30;26.87;;;24.43;;
8964;SDS011;4517;49.020;12.066;2023-08-17T08:04:56;26.37;;;24.27;;
8964;SDS011;4517;49.020;12.066;2023-08-17T08:07:22;27.83;;;24.83;;
8964;SDS011;4517;49.020;12.066;2023-08-17T08:09:48;27.53;;;25.33;;
8964;SDS011;4517;49.020;12.066;2023-08-17T08:12:14;30.13;;;27.03;;
8964;SDS011;4517;49.020;12.066;2023-08-17T08:14:40;30.00;;;27.23;;
8964;SDS011;4517;49.020;12.066;2023-08-17T08:17:06;28.27;;;25.77;;
8964;SDS011;4517;49.020;12.066;2023-08-17T08:19:32;28.30;;;25.90;;
8964;SDS011;4517;49.020;12.066;2023-08-17T08:21:58;28.80;;;26.37;;
8964;SDS011;4517;49.020;12.066;2023-08-17T08:24:24;29.20;;;26.80;;
8964;SDS011;4517;49.020;12.066;2023-08-17T08:26:56;30.20;;;27.67;;
8964;SDS011;4517;49.020;12.066;2023-08-17T08:29:22;39.23;;;35.90;;
8964;SDS011;4517;49.020;12.066;2023-08-17T08:31:47;29.43;;;26.97;;
8964;SDS011;4517;49.020;12.066;2023-08-17T08:34:13;30.57;;;27.87;;
8964;SDS011;4517;49.020;12.066;2023-08-17T08:36:39;29.03;;;26.53;;
8964;SDS011;4517;49.020;12.066;2023-08-17T08:39:05;29.13;;;26.60;;
8964;SDS011;4517;49.020;12.066;2023-08-17T08:41:31;30.20;;;27.37;;
8964;SDS011;4517;49.020;12.066;2023-08-17T08:43:58;31.50;;;28.80;;
8964;SDS011;4517;49.020;12.066;2023-08-17T08:46:24;31.63;;;27.27;;
8964;SDS011;4517;49.020;12.066;2023-08-17T08:48:52;28.57;;;26.07;;
8964;SDS011;4517;49.020;12.066;2023-08-17T08:51:20;29.70;;;27.03;;
8964;SDS011;4517;49.020;12.066;2023-08-17T08:53:48;28.47;;;26.07;;
8964;SDS011;4517;49.020;12.066;2023-08-17T08:56:16;28.07;;;25.50;;
8964;SDS011;4517;49.020;12.066;2023-08-17T08:58:44;28.40;;;25.80;;
8964;SDS011;4517;49.020;12.066;2023-08-17T09:01:11;28.87;;;26.33;;
8964;SDS011;4517;49.020;12.066;2023-08-17T09:03:37;28.63;;;26.03;;
8964;SDS011;4517;49.020;12.066;2023-08-17T09:06:04;28.17;;;25.70;;
8964;SDS011;4517;49.020;12.066;2023-08-17T09:08:30;27.93;;;25.53;;
8964;SDS011;4517;49.020;12.066;2023-08-17T09:10:56;28.60;;;25.77;;
8964;SDS011;4517;49.020;12.066;2023-08-17T09:13:22;28.67;;;26.00;;
8964;SDS011;4517;49.020;12.066;2023-08-17T09:15:48;27.53;;;25.07;;
8964;SDS011;4517;49.020;12.066;2023-08-17T09:18:14;26.83;;;24.43;;
8964;SDS011;4517;49.020;12.066;2023-08-17T09:20:45;28.10;;;25.30;;
8964;SDS011;4517;49.020;12.066;2023-08-17T09:23:12;26.70;;;24.40;;
8964;SDS011;4517;49.020;12.066;2023-08-17T09:25:39;29.67;;;26.97;;
8964;SDS011;4517;49.020;12.066;2023-08-17T09:28:09;28.73;;;25.73;;
8964;SDS011;4517;49.020;12.066;2023-08-17T09:30:48;29.50;;;26.37;;
8964;SDS011;4517;49.020;12.066;2023-08-17T09:33:15;29.47;;;26.67;;
8964;SDS011;4517;49.020;12.066;2023-08-17T09:35:41;27.30;;;25.10;;
8964;SDS011;4517;49.020;12.066;2023-08-17T09:38:07;28.30;;;25.67;;
8964;SDS011;4517;49.020;12.066;2023-08-17T09:40:33;28.20;;;25.70;;
8964;SDS011;4517;49.020;12.066;2023-08-17T09:42:59;28.70;;;26.10;;
8964;SDS011;4517;49.020;12.066;2023-08-17T09:45:26;28.00;;;25.30;;
8964;SDS011;4517;49.020;12.066;2023-08-17T09:47:54;27.00;;;24.43;;
8964;SDS011;4517;49.020;12.066;2023-08-17T09:50:22;28.77;;;26.37;;
8964;SDS011;4517;49.020;12.066;2023-08-17T09:52:52;28.53;;;25.87;;
8964;SDS011;4517;49.020;12.066;2023-08-17T09:55:20;26.40;;;24.10;;
8964;SDS011;4517;49.020;12.066;2023-08-17T09:57:46;27.70;;;25.20;;
8964;SDS011;4517;49.020;12.066;2023-08-17T10:00:13;27.30;;;24.90;;
8964;SDS011;4517;49.020;12.066;2023-08-17T10:02:39;28.10;;;25.40;;
8964;SDS011;4517;49.020;12.066;2023-08-17T10:05:05;32.70;;;30.10;;
8964;SDS011;4517;49.020;12.066;2023-08-17T10:07:32;27.37;;;24.77;;
8964;SDS011;4517;49.020;12.066;2023-08-17T10:10:02;26.97;;;24.50;;
8964;SDS011;4517;49.020;12.066;2023-08-17T10:12:28;25.50;;;23.40;;
8964;SDS011;4517;49.020;12.066;2023-08-17T10:15:02;27.03;;;24.50;;
8964;SDS011;4517;49.020;12.066;2023-08-17T10:17:30;27.33;;;24.77;;
8964;SDS011;4517;49.020;12.066;2023-08-17T10:19:58;26.73;;;23.90;;
8964;SDS011;4517;49.020;12.066;2023-08-17T10:24:57;26.40;;;24.00;;
8964;SDS011;4517;49.020;12.066;2023-08-17T10:27:24;26.77;;;24.57;;
8964;SDS011;4517;49.020;12.066;2023-08-17T10:29:51;26.80;;;24.47;;
8964;SDS011;4517;49.020;12.066;2023-08-17T10:32:17;25.83;;;23.83;;
8964;SDS011;4517;49.020;12.066;2023-08-17T10:34:43;27.77;;;25.23;;
8964;SDS011;4517;49.020;12.066;2023-08-17T10:37:10;26.87;;;24.53;;
8964;SDS011;4517;49.020;12.066;2023-08-17T10:39:36;26.50;;;24.20;;
8964;SDS011;4517;49.020;12.066;2023-08-17T10:42:04;25.97;;;23.67;;
8964;SDS011;4517;49.020;12.066;2023-08-17T10:44:40;26.13;;;23.83;;
8964;SDS011;4517;49.020;12.066;2023-08-17T10:49:51;26.40;;;24.20;;
8964;SDS011;4517;49.020;12.066;2023-08-17T10:52:31;26.83;;;24.50;;
8964;SDS011;4517;49.020;12.066;2023-08-17T10:55:04;27.33;;;24.97;;
8964;SDS011;4517;49.020;12.066;2023-08-17T11:00:16;25.87;;;23.43;;
8964;SDS011;4517;49.020;12.066;2023-08-17T11:03:02;25.30;;;23.20;;
8964;SDS011;4517;49.020;12.066;2023-08-17T11:08:02;26.50;;;24.07;;
8964;SDS011;4517;49.020;12.066;2023-08-17T11:10:28;27.37;;;25.07;;
8964;SDS011;4517;49.020;12.066;2023-08-17T11:12:55;26.23;;;24.17;;
8964;SDS011;4517;49.020;12.066;2023-08-17T11:15:24;25.23;;;23.13;;
8964;SDS011;4517;49.020;12.066;2023-08-17T11:17:50;25.77;;;23.70;;
8964;SDS011;4517;49.020;12.066;2023-08-17T11:20:16;25.40;;;23.20;;
8964;SDS011;4517;49.020;12.066;2023-08-17T11:22:42;24.90;;;22.80;;
8964;SDS011;4517;49.020;12.066;2023-08-17T11:25:08;24.20;;;22.30;;
8964;SDS011;4517;49.020;12.066;2023-08-17T11:27:34;25.27;;;23.10;;
8964;SDS011;4517;49.020;12.066;2023-08-17T11:30:00;25.57;;;23.37;;
8964;SDS011;4517;49.020;12.066;2023-08-17T11:32:26;23.10;;;21.37;;
8964;SDS011;4517;49.020;12.066;2023-08-17T11:34:52;24.83;;;22.50;;
8964;SDS011;4517;49.020;12.066;2023-08-17T11:37:18;25.20;;;22.87;;
8964;SDS011;4517;49.020;12.066;2023-08-17T11:39:44;24.07;;;22.10;;
8964;SDS011;4517;49.020;12.066;2023-08-17T11:42:10;24.20;;;21.93;;
8964;SDS011;4517;49.020;12.066;2023-08-17T11:44:36;24.60;;;22.40;;
8964;SDS011;4517;49.020;12.066;2023-08-17T11:47:03;25.03;;;22.93;;
8964;SDS011;4517;49.020;12.066;2023-08-17T11:49:30;23.97;;;22.07;;
8964;SDS011;4517;49.020;12.066;2023-08-17T11:51:56;24.57;;;21.97;;
8964;SDS011;4517;49.020;12.066;2023-08-17T11:54:22;24.30;;;22.40;;
8964;SDS011;4517;49.020;12.066;2023-08-17T11:56:48;24.10;;;22.03;;
8964;SDS011;4517;49.020;12.066;2023-08-17T11:59:14;24.20;;;22.30;;
8964;SDS011;4517;49.020;12.066;2023-08-17T12:01:43;24.50;;;22.43;;
8964;SDS011;4517;49.020;12.066;2023-08-17T12:04:09;24.10;;;22.17;;
8964;SDS011;4517;49.020;12.066;2023-08-17T12:06:42;24.40;;;22.30;;
8964;SDS011;4517;49.020;12.066;2023-08-17T12:09:12;25.57;;;23.33;;
8964;SDS011;4517;49.020;12.066;2023-08-17T12:11:39;25.10;;;23.20;;
8964;SDS011;4517;49.020;12.066;2023-08-17T12:14:11;24.50;;;22.43;;
8964;SDS011;4517;49.020;12.066;2023-08-17T12:16:47;25.00;;;23.00;;
8964;SDS011;4517;49.020;12.066;2023-08-17T12:19:13;25.03;;;22.90;;
8964;SDS011;4517;49.020;12.066;2023-08-17T12:21:43;25.70;;;23.50;;
8964;SDS011;4517;49.020;12.066;2023-08-17T12:24:09;24.87;;;22.93;;
8964;SDS011;4517;49.020;12.066;2023-08-17T12:26:40;24.20;;;22.30;;
8964;SDS011;4517;49.020;12.066;2023-08-17T12:29:07;24.80;;;22.20;;
8964;SDS011;4517;49.020;12.066;2023-08-17T12:31:33;24.70;;;22.70;;
8964;SDS011;4517;49.020;12.066;2023-08-17T12:33:59;24.53;;;22.47;;
8964;SDS011;4517;49.020;12.066;2023-08-17T12:36:25;25.23;;;23.13;;
8964;SDS011;4517;49.020;12.066;2023-08-17T12:38:51;24.70;;;22.20;;
8964;SDS011;4517;49.020;12.066;2023-08-17T12:41:17;25.37;;;23.27;;
8964;SDS011;4517;49.020;12.066;2023-08-17T12:43:44;25.60;;;23.40;;
8964;SDS011;4517;49.020;12.066;2023-08-17T12:46:10;25.40;;;23.40;;
8964;SDS011;4517;49.020;12.066;2023-08-17T12:48:36;25.80;;;23.57;;
8964;SDS011;4517;49.020;12.066;2023-08-17T12:51:02;23.83;;;21.73;;
8964;SDS011;4517;49.020;12.066;2023-08-17T12:53:28;24.70;;;22.10;;
8964;SDS011;4517;49.020;12.066;2023-08-17T12:55:54;24.67;;;22.87;;
8964;SDS011;4517;49.020;12.066;2023-08-17T12:58:20;23.50;;;21.27;;
8964;SDS011;4517;49.020;12.066;2023-08-17T13:00:46;25.80;;;22.70;;
8964;SDS011;4517;49.020;12.066;2023-08-17T13:03:15;23.37;;;21.03;;
8964;SDS011;4517;49.020;12.066;2023-08-17T13:05:41;24.13;;;22.10;;
8964;SDS011;4517;49.020;12.066;2023-08-17T13:08:07;28.50;;;22.33;;
8964;SDS011;4517;49.020;12.066;2023-08-17T13:10:34;24.77;;;22.67;;
8964;SDS011;4517;49.020;12.066;2023-08-17T13:13:00;23.67;;;21.87;;
8964;SDS011;4517;49.020;12.066;2023-08-17T13:15:26;22.87;;;21.10;;
8964;SDS011;4517;49.020;12.066;2023-08-17T13:17:52;24.20;;;22.20;;
8964;SDS011;4517;49.020;12.066;2023-08-17T13:20:18;25.33;;;22.37;;
8964;SDS011;4517;49.020;12.066;2023-08-17T13:22:44;24.30;;;21.60;;
8964;SDS011;4517;49.020;12.066;2023-08-17T13:25:10;27.93;;;23.00;;
8964;SDS011;4517;49.020;12.066;2023-08-17T13:27:36;24.90;;;22.90;;
8964;SDS011;4517;49.020;12.066;2023-08-17T13:30:02;25.13;;;23.00;;
8964;SDS011;4517;49.020;12.066;2023-08-17T13:32:28;25.27;;;23.07;;
8964;SDS011;4517;49.020;12.066;2023-08-17T13:34:54;25.23;;;23.10;;
8964;SDS011;4517;49.020;12.066;2023-08-17T13:37:20;24.33;;;22.23;;
8964;SDS011;4517;49.020;12.066;2023-08-17T13:39:46;25.40;;;23.03;;
8964;SDS011;4517;49.020;12.066;2023-08-17T13:42:12;24.27;;;22.10;;
8964;SDS011;4517;49.020;12.066;2023-08-17T13:44:38;22.23;;;20.50;;
8964;SDS011;4517;49.020;12.066;2023-08-17T13:47:04;23.90;;;21.90;;
8964;SDS011;4517;49.020;12.066;2023-08-17T13:49:30;23.13;;;21.00;;
8964;SDS011;4517;49.020;12.066;2023-08-17T13:51:56;23.80;;;21.80;;
8964;SDS011;4517;49.020;12.066;2023-08-17T13:54:23;24.50;;;22.47;;
8964;SDS011;4517;49.020;12.066;2023-08-17T13:56:49;22.20;;;20.50;;
8964;SDS011;4517;49.020;12.066;2023-08-17T13:59:15;23.77;;;21.87;;
8964;SDS011;4517;49.020;12.066;2023-08-17T14:01:41;23.53;;;21.53;;
8964;SDS011;4517;49.020;12.066;2023-08-17T14:04:06;23.97;;;21.90;;
8964;SDS011;4517;49.020;12.066;2023-08-17T14:06:37;23.13;;;21.13;;
8964;SDS011;4517;49.020;12.066;2023-08-17T14:09:03;23.50;;;21.50;;
8964;SDS011;4517;49.020;12.066;2023-08-17T14:11:29;23.90;;;21.90;;
8964;SDS011;4517;49.020;12.066;2023-08-17T14:13:55;21.87;;;20.27;;
8964;SDS011;4517;49.020;12.066;2023-08-17T14:16:21;22.80;;;21.00;;
8964;SDS011;4517;49.020;12.066;2023-08-17T14:18:47;22.90;;;20.90;;
8964;SDS011;4517;49.020;12.066;2023-08-17T14:21:13;23.40;;;21.40;;
8964;SDS011;4517;49.020;12.066;2023-08-17T14:23:39;23.40;;;21.40;;
8964;SDS011;4517;49.020;12.066;2023-08-17T14:26:06;22.57;;;20.77;;
8964;SDS011;4517;49.020;12.066;2023-08-17T14:28:32;22.30;;;20.60;;
8964;SDS011;4517;49.020;12.066;2023-08-17T14:30:57;22.73;;;20.77;;
8964;SDS011;4517;49.020;12.066;2023-08-17T14:33:23;22.10;;;20.13;;
8964;SDS011;4517;49.020;12.066;2023-08-17T14:35:49;23.07;;;20.93;;
8964;SDS011;4517;49.020;12.066;2023-08-17T14:38:16;21.30;;;19.80;;
8964;SDS011;4517;49.020;12.066;2023-08-17T14:40:42;22.40;;;20.23;;